Time;durP1;ratioP1;P1;durP2;ratioP2;P2;SDS_P1;SDS_P2;PMS_P1;PMS_P2;Temp;Humidity;BMP_temperature;BMP_pressure;BME280_temperature;BME280_humidity;BME280_pressure;Samples;Min_cycle;Max_cycle;Signal;HPM_P1;HPM_P2
2022/11/29 00:00:59;;;;;;;20.27;17.23;;;;;;;8.11;100.00;102222.97;2070957;28;21621;-69
2022/11/29 00:01:59;;;;;;;23.13;17.90;;;;;;;8.01;100.00;102224.47;2071106;28;20185;-68
2022/11/29 00:03:00;;;;;;;21.30;17.57;;;;;;;7.39;100.00;102114.84;2072353;28;20225;-68
2022/11/29 00:04:01;;;;;;;21.67;18.00;;;;;;;7.57;100.00;102146.22;2071623;28;20258;-69
2022/11/29 00:05:02;;;;;;;22.50;18.17;;;;;;;8.06;100.00;102220.56;2071403;28;20692;-69
2022/11/29 00:06:13;;;;;;;21.70;18.20;;;;;;;8.05;100.00;102218.97;2072288;28;20614;-69
2022/11/29 00:07:14;;;;;;;22.17;17.52;;;;;;;8.02;100.00;102214.19;2071120;28;20205;-69
2022/11/29 00:08:14;;;;;;;22.00;17.70;;;;;;;8.02;100.00;102220.53;2072053;28;20205;-69
2022/11/29 00:09:14;;;;;;;21.50;18.03;;;;;;;8.01;100.00;102218.94;2070692;28;20199;-69
2022/11/29 00:10:15;;;;;;;22.83;17.30;;;;;;;7.98;100.00;102214.16;2071869;28;20189;-69
2022/11/29 00:12:37;;;;;;;22.10;16.92;;;;;;;7.91;100.00;102218.78;2071287;28;20241;-69
2022/11/29 00:13:38;;;;;;;20.40;16.80;;;;;;;7.98;100.00;102235.44;2071258;28;20185;-69
2022/11/29 00:14:39;;;;;;;20.07;16.80;;;;;;;8.01;100.00;102221.69;2071302;28;20593;-69
2022/11/29 00:15:39;;;;;;;20.33;16.87;;;;;;;7.99;100.00;102215.75;2071857;28;20204;-69
2022/11/29 00:16:40;;;;;;;22.10;17.30;;;;;;;7.95;100.00;102216.88;2071528;28;20590;-69
2022/11/29 00:17:41;;;;;;;21.80;17.33;;;;;;;7.95;100.00;102214.91;2071474;28;20197;-69
2022/11/29 00:18:41;;;;;;;20.97;17.43;;;;;;;7.94;100.00;102218.81;2070980;28;20529;-69
2022/11/29 00:19:43;;;;;;;20.43;16.80;;;;;;;7.94;100.00;102213.31;2070969;28;20197;-69
2022/11/29 00:20:44;;;;;;;21.10;17.15;;;;;;;7.86;100.00;102211.66;2071723;28;20205;-69
2022/11/29 00:21:44;;;;;;;22.10;17.20;;;;;;;7.85;100.00;102193.47;2071322;28;20707;-69
2022/11/29 00:22:45;;;;;;;21.10;16.87;;;;;;;7.93;100.00;102213.69;2070439;28;20568;-69
2022/11/29 00:23:45;;;;;;;20.87;16.40;;;;;;;7.93;100.00;102216.44;2071245;28;20190;-69
2022/11/29 00:24:46;;;;;;;21.00;17.10;;;;;;;7.91;100.00;102216.03;2071608;28;20219;-69
2022/11/29 00:25:46;;;;;;;19.73;15.50;;;;;;;7.67;100.00;102175.91;2071999;28;20594;-68
2022/11/29 00:26:47;;;;;;;19.90;15.80;;;;;;;7.88;100.00;102206.53;2071376;28;20274;-69
2022/11/29 00:27:50;;;;;;;18.55;15.70;;;;;;;7.94;100.00;102212.53;2071306;28;20205;-69
2022/11/29 00:28:50;;;;;;;21.17;17.08;;;;;;;7.50;100.00;102143.41;2071510;28;20219;-69
2022/11/29 00:29:51;;;;;;;20.13;16.33;;;;;;;7.91;100.00;102210.50;2071981;28;20182;-69
2022/11/29 00:30:51;;;;;;;20.30;16.47;;;;;;;7.93;100.00;102213.69;2071418;28;20178;-68
2022/11/29 00:31:52;;;;;;;18.40;15.97;;;;;;;7.91;100.00;102214.09;2070469;28;20189;-69
2022/11/29 00:32:52;;;;;;;20.67;16.03;;;;;;;7.92;100.00;102212.09;2071792;28;20195;-68
2022/11/29 00:33:52;;;;;;;20.37;16.27;;;;;;;7.92;100.00;102221.19;2071764;28;20185;-69
2022/11/29 00:34:53;;;;;;;19.80;16.47;;;;;;;6.89;100.00;102053.94;2071439;28;20182;-69
2022/11/29 00:35:53;;;;;;;18.97;15.73;;;;;;;7.81;100.00;102206.47;2071520;28;20193;-68
2022/11/29 00:36:53;;;;;;;20.07;16.30;;;;;;;7.93;100.00;102217.25;2070607;28;20193;-68
2022/11/29 00:37:54;;;;;;;18.60;15.60;;;;;;;7.88;100.00;102214.81;2071647;28;20186;-69
2022/11/29 00:38:55;;;;;;;19.50;16.13;;;;;;;7.96;100.00;102222.03;2071817;28;20182;-69
2022/11/29 00:39:55;;;;;;;20.30;16.33;;;;;;;7.97;100.00;102220.03;2071273;28;20221;-69
2022/11/29 00:40:55;;;;;;;19.43;15.80;;;;;;;7.93;100.00;102221.97;2070769;28;20186;-69
2022/11/29 00:41:56;;;;;;;18.30;15.30;;;;;;;7.89;100.00;102215.63;2070685;28;20268;-69
2022/11/29 00:42:56;;;;;;;20.97;16.27;;;;;;;7.85;100.00;102221.06;2071354;28;20275;-69
2022/11/29 00:43:57;;;;;;;20.80;16.03;;;;;;;7.85;100.00;102223.84;2071391;28;20213;-69
2022/11/29 00:44:57;;;;;;;19.23;15.67;;;;;;;7.84;100.00;102225.00;2071458;28;20644;-69
2022/11/29 00:45:58;;;;;;;20.10;16.57;;;;;;;7.83;100.00;102222.63;2070854;28;20325;-69
2022/11/29 00:46:58;;;;;;;20.93;16.20;;;;;;;7.76;100.00;102228.88;2071020;28;20668;-69
2022/11/29 00:47:58;;;;;;;18.73;16.20;;;;;;;7.33;100.00;102177.03;2071288;28;20478;-69
2022/11/29 00:48:59;;;;;;;19.73;16.17;;;;;;;7.64;100.00;102225.53;2072009;28;20201;-69
2022/11/29 00:49:59;;;;;;;21.13;16.60;;;;;;;7.68;100.00;102229.16;2071088;28;20197;-69
2022/11/29 00:51:00;;;;;;;21.10;16.80;;;;;;;6.94;100.00;102114.25;2071222;28;20194;-69
2022/11/29 00:52:01;;;;;;;20.47;16.03;;;;;;;7.50;100.00;102204.09;2070912;28;20554;-69
2022/11/29 00:53:01;;;;;;;20.43;16.40;;;;;;;7.63;100.00;102230.25;2071525;28;20448;-69
2022/11/29 00:54:02;;;;;;;19.70;16.00;;;;;;;7.66;100.00;102231.47;2071478;28;20188;-68
2022/11/29 00:55:02;;;;;;;20.77;16.20;;;;;;;7.65;100.00;102230.69;2070633;28;20198;-69
2022/11/29 00:56:04;;;;;;;19.10;16.03;;;;;;;7.65;100.00;102221.63;2071433;28;20182;-69
2022/11/29 00:57:04;;;;;;;19.83;15.80;;;;;;;7.69;100.00;102228.75;2071493;28;20532;-69
2022/11/29 00:58:05;;;;;;;19.10;15.10;;;;;;;7.59;100.00;102217.59;2071661;28;20247;-68
2022/11/29 00:59:05;;;;;;;19.17;15.70;;;;;;;7.66;100.00;102232.28;2070800;28;20186;-69
2022/11/29 01:00:07;;;;;;;18.50;15.20;;;;;;;7.65;100.00;102225.19;2071473;28;20209;-69
2022/11/29 01:01:07;;;;;;;19.45;15.98;;;;;;;7.30;100.00;102172.28;2071005;28;20201;-69
2022/11/29 01:02:07;;;;;;;19.77;16.83;;;;;;;7.59;100.00;102225.88;2071441;28;20203;-68
2022/11/29 01:03:08;;;;;;;20.27;16.57;;;;;;;7.63;100.00;102221.19;2071334;28;20193;-69
2022/11/29 01:04:08;;;;;;;20.87;16.33;;;;;;;7.63;100.00;102227.50;2070741;28;20647;-69
2022/11/29 01:05:09;;;;;;;19.57;15.93;;;;;;;7.65;100.00;102221.63;2071830;28;20190;-68
2022/11/29 01:06:12;;;;;;;20.53;15.33;;;;;;;7.66;100.00;102223.19;2071769;28;20196;-68
2022/11/29 01:07:12;;;;;;;19.70;16.40;;;;;;;7.65;100.00;102230.69;2070677;28;20198;-69
2022/11/29 01:08:13;;;;;;;19.07;15.80;;;;;;;7.55;100.00;102225.03;2070861;28;20336;-68
2022/11/29 01:09:13;;;;;;;21.47;17.07;;;;;;;7.56;100.00;102227.41;2071572;28;20202;-68
2022/11/29 01:10:14;;;;;;;20.17;16.17;;;;;;;7.58;100.00;102229.81;2071303;28;20575;-69
2022/11/29 01:11:18;;;;;;;20.20;16.20;;;;;;;7.57;100.00;102223.47;2070839;28;20194;-69
2022/11/29 01:12:18;;;;;;;20.35;16.05;;;;;;;7.55;100.00;102223.06;2070897;28;20216;-69
2022/11/29 01:13:19;;;;;;;20.20;15.90;;;;;;;7.56;100.00;102221.09;2070980;28;20188;-69
2022/11/29 01:14:19;;;;;;;20.97;16.70;;;;;;;7.51;100.00;102227.72;2071828;28;20636;-69
2022/11/29 01:15:20;;;;;;;19.97;16.20;;;;;;;7.53;100.00;102225.38;2070596;28;20189;-69
2022/11/29 01:16:21;;;;;;;19.93;15.90;;;;;;;7.38;100.00;102203.50;2071570;28;20225;-69
2022/11/29 01:17:21;;;;;;;20.07;16.27;;;;;;;7.50;100.00;102219.81;2070414;28;20190;-69
2022/11/29 01:18:22;;;;;;;19.70;16.37;;;;;;;6.87;100.00;102134.22;2071319;28;20288;-69
2022/11/29 01:19:22;;;;;;;21.10;16.70;;;;;;;7.33;100.00;102223.91;2071377;28;20197;-69
2022/11/29 01:20:23;;;;;;;21.10;17.20;;;;;;;7.38;100.00;102242.91;2070831;28;20190;-69
2022/11/29 01:21:23;;;;;;;20.87;16.50;;;;;;;7.39;100.00;102219.66;2071118;28;20190;-69
2022/11/29 01:22:24;;;;;;;20.40;17.13;;;;;;;7.39;100.00;102219.66;2070938;28;20620;-69
2022/11/29 01:23:24;;;;;;;20.70;17.30;;;;;;;7.34;100.00;102214.47;2070927;28;20228;-69
2022/11/29 01:24:25;;;;;;;20.57;16.03;;;;;;;7.30;100.00;102208.13;2071361;28;20277;-69
2022/11/29 01:25:25;;;;;;;21.43;17.10;;;;;;;7.39;100.00;102216.13;2071225;28;20200;-69
2022/11/29 01:26:29;;;;;;;22.63;17.53;;;;;;;7.37;100.00;102213.72;2070652;28;20187;-69
2022/11/29 01:27:29;;;;;;;20.65;17.05;;;;;;;7.42;100.00;102218.13;2070904;28;20678;-70
2022/11/29 01:28:30;;;;;;;22.63;17.37;;;;;;;7.46;100.00;102221.72;2070714;28;20541;-69
2022/11/29 01:29:30;;;;;;;21.90;17.40;;;;;;;7.46;100.00;102210.69;2070910;28;20189;-69
2022/11/29 01:30:31;;;;;;;21.60;17.80;;;;;;;7.46;100.00;102214.25;2071533;28;20189;-69
2022/11/29 01:31:36;;;;;;;20.30;16.57;;;;;;;7.50;100.00;102206.84;2070866;28;20272;-69
2022/11/29 01:32:37;;;;;;;22.27;17.27;;;;;;;7.47;100.00;102206.78;2070881;28;20213;-69
2022/11/29 01:33:38;;;;;;;20.33;16.05;;;;;;;7.46;100.00;102208.75;2071180;28;20535;-69
2022/11/29 01:34:39;;;;;;;21.83;16.63;;;;;;;7.45;100.00;102206.34;2071213;28;20216;-69
2022/11/29 01:35:39;;;;;;;22.00;17.33;;;;;;;7.32;100.00;102203.03;2070171;28;20874;-69
2022/11/29 01:36:40;;;;;;;20.47;16.60;;;;;;;7.35;100.00;102198.72;2071015;28;20599;-69
2022/11/29 01:37:40;;;;;;;21.70;17.57;;;;;;;7.35;100.00;102201.50;2070949;28;20197;-69
2022/11/29 01:38:44;;;;;;;21.23;16.57;;;;;;;7.34;100.00;102195.16;2071118;28;20272;-69
2022/11/29 01:39:45;;;;;;;19.90;16.95;;;;;;;7.33;100.00;102195.56;2070977;28;20194;-69
2022/11/29 01:40:59;;;;;;;20.27;16.27;;;;;;;7.24;100.00;102195.03;2070364;28;20217;-69
2022/11/29 01:42:01;;;;;;;22.30;17.52;;;;;;;7.28;100.00;102202.16;2071174;28;20187;-69
2022/11/29 01:43:01;;;;;;;22.02;17.38;;;;;;;7.34;100.00;102200.69;2071087;28;20201;-69
2022/11/29 01:44:29;;;;;;;22.50;17.23;;;;;;;6.45;100.00;102058.38;2071184;28;20217;-69
2022/11/29 01:45:36;;;;;;;20.40;16.70;;;;;;;7.29;100.00;102198.25;2071403;28;20186;-69
2022/11/29 01:46:43;;;;;;;22.00;17.00;;;;;;;7.20;100.00;102172.13;2071268;28;20181;-69
2022/11/29 01:47:44;;;;;;;21.80;16.67;;;;;;;7.26;100.00;102192.69;2070745;28;20209;-69
2022/11/29 01:48:45;;;;;;;23.30;17.63;;;;;;;6.76;100.00;102107.69;2071369;28;20565;-70
2022/11/29 01:49:48;;;;;;;21.00;16.70;;;;;;;7.32;100.00;102188.44;2070108;28;20220;-69
2022/11/29 01:50:49;;;;;;;20.45;16.88;;;;;;;7.29;100.00;102200.22;2070362;28;20267;-69
2022/11/29 01:51:54;;;;;;;21.63;17.10;;;;;;;6.47;100.00;102065.09;2070604;28;20225;-69
2022/11/29 01:52:54;;;;;;;22.42;17.40;;;;;;;7.22;100.00;102189.09;2070874;28;20615;-69
2022/11/29 01:53:55;;;;;;;21.27;16.93;;;;;;;7.24;100.00;102186.75;2070714;28;20208;-69
2022/11/29 01:55:00;;;;;;;23.30;17.60;;;;;;;7.26;100.00;102182.47;2070483;28;20225;-69
2022/11/29 01:56:04;;;;;;;20.50;16.98;;;;;;;7.27;100.00;102197.84;2070918;28;20189;-69
2022/11/29 01:57:07;;;;;;;22.95;17.88;;;;;;;7.23;100.00;102185.16;2070327;28;20507;-69
2022/11/29 01:58:08;;;;;;;21.95;17.70;;;;;;;7.24;100.00;102192.25;2071112;28;20671;-69
2022/11/29 01:59:13;;;;;;;21.50;17.00;;;;;;;7.20;100.00;102194.19;2069880;28;20803;-69
2022/11/29 02:00:17;;;;;;;23.25;18.05;;;;;;;7.22;100.00;102191.84;2070956;28;20292;-69
2022/11/29 02:01:17;;;;;;;21.48;17.48;;;;;;;6.41;100.00;102068.56;2070659;28;20189;-69
2022/11/29 02:02:30;;;;;;;24.53;18.03;;;;;;;7.26;100.00;102193.50;2070711;28;20188;-69
2022/11/29 02:03:31;;;;;;;21.42;18.17;;;;;;;6.97;100.00;102141.06;2070561;28;20204;-69
2022/11/29 02:04:34;;;;;;;22.03;17.03;;;;;;;7.25;100.00;102197.41;2071092;28;20646;-69
2022/11/29 02:05:38;;;;;;;20.83;17.35;;;;;;;7.25;100.00;102188.34;2070765;28;20580;-69
2022/11/29 02:06:39;;;;;;;21.20;16.85;;;;;;;7.29;100.00;102187.22;2071021;28;20651;-69
2022/11/29 02:07:44;;;;;;;22.27;18.08;;;;;;;7.31;100.00;102186.84;2070294;28;20193;-69
2022/11/29 02:08:45;;;;;;;21.52;17.23;;;;;;;7.22;100.00;102181.59;2071503;28;20183;-69
2022/11/29 02:09:45;;;;;;;21.53;17.43;;;;;;;7.27;100.00;102186.81;2070634;28;20217;-69
2022/11/29 02:11:25;;;;;;;23.07;18.37;;;;;;;7.20;100.00;102174.88;2071227;28;20204;-69
2022/11/29 02:12:47;;;;;;;22.85;18.17;;;;;;;7.20;100.00;102183.16;2069692;28;20258;-69
2022/11/29 02:13:56;;;;;;;22.42;17.35;;;;;;;7.22;100.00;102178.84;2070841;28;20181;-69
2022/11/29 02:15:16;;;;;;;23.17;18.02;;;;;;;7.22;100.00;102178.06;2070152;28;20208;-69
2022/11/29 02:16:44;;;;;;;22.48;17.75;;;;;;;7.22;100.00;102178.84;2070843;28;20247;-69
2022/11/29 02:17:47;;;;;;;24.52;17.88;;;;;;;7.24;100.00;102181.25;2070628;28;20784;-69
2022/11/29 02:19:12;;;;;;;22.42;17.55;;;;;;;7.24;100.00;102182.03;2071513;28;20679;-69
2022/11/29 02:20:24;;;;;;;22.13;17.70;;;;;;;7.24;100.00;102184.00;2070870;28;20180;-69
2022/11/29 02:21:35;;;;;;;21.65;16.75;;;;;;;7.25;100.00;102174.56;2070473;28;20189;-69
2022/11/29 02:22:44;;;;;;;20.95;17.05;;;;;;;7.30;100.00;102185.25;2070440;28;20205;-69
2022/11/29 02:24:08;;;;;;;23.02;17.58;;;;;;;7.28;100.00;102176.56;2070559;28;20173;-69
2022/11/29 02:25:26;;;;;;;22.35;17.60;;;;;;;7.29;100.00;102172.66;2070149;28;20201;-69
2022/11/29 02:27:01;;;;;;;22.48;18.02;;;;;;;7.25;100.00;102180.88;2070199;28;20276;-69
2022/11/29 02:28:01;;;;;;;22.48;17.27;;;;;;;7.26;100.00;102167.88;2071183;28;20722;-68
2022/11/29 02:29:13;;;;;;;20.97;16.73;;;;;;;7.26;100.00;102176.13;2070718;28;20558;-69
2022/11/29 02:30:34;;;;;;;23.63;17.42;;;;;;;7.27;100.00;102174.97;2070215;28;20559;-68
2022/11/29 02:31:56;;;;;;;24.17;17.40;;;;;;;7.29;100.00;102175.41;2070872;28;20177;-69
2022/11/29 02:32:56;;;;;;;22.67;17.55;;;;;;;7.27;100.00;102173.00;2071078;28;20181;-69
2022/11/29 02:34:06;;;;;;;22.50;18.00;;;;;;;7.24;100.00;102176.53;2070691;28;20189;-69
2022/11/29 02:35:48;;;;;;;22.08;17.42;;;;;;;7.25;100.00;102180.06;2070363;28;20184;-69
2022/11/29 02:37:06;;;;;;;21.83;16.98;;;;;;;7.27;100.00;102175.78;2071250;28;20833;-69
2022/11/29 02:38:28;;;;;;;23.15;17.52;;;;;;;7.28;100.00;102182.09;2071098;28;20710;-69
2022/11/29 02:39:37;;;;;;;23.50;17.88;;;;;;;7.31;100.00;102187.66;2070024;28;20744;-69
2022/11/29 02:41:13;;;;;;;21.67;16.98;;;;;;;6.75;100.00;102095.84;2071040;28;20196;-69
2022/11/29 02:42:47;;;;;;;21.88;17.08;;;;;;;7.29;100.00;102178.16;2070187;28;20189;-69
2022/11/29 02:44:36;;;;;;;23.25;17.50;;;;;;;7.28;100.00;102185.63;2070478;28;21469;-69
2022/11/29 02:45:54;;;;;;;20.95;16.38;;;;;;;7.25;100.00;102186.38;2070418;28;20243;-68
2022/11/29 02:47:01;;;;;;;22.60;18.00;;;;;;;7.20;100.00;102183.94;2070312;28;20197;-69
2022/11/29 02:48:13;;;;;;;22.55;17.50;;;;;;;7.22;100.00;102181.59;2070215;28;20678;-69
2022/11/29 02:49:48;;;;;;;23.00;17.48;;;;;;;7.04;100.00;102161.25;2070163;28;20264;-69
2022/11/29 02:51:08;;;;;;;20.90;16.13;;;;;;;7.15;100.00;102192.53;2070660;28;20202;-69
2022/11/29 02:52:41;;;;;;;21.48;17.10;;;;;;;7.17;100.00;102190.19;2070475;28;20689;-69
2022/11/29 02:54:00;;;;;;;21.77;17.42;;;;;;;7.17;100.00;102190.19;2070669;28;20275;-69
2022/11/29 02:55:18;;;;;;;22.40;17.05;;;;;;;7.16;100.00;102193.31;2070439;28;20251;-69
2022/11/29 02:56:35;;;;;;;22.50;17.08;;;;;;;7.17;100.00;102192.94;2070882;28;20193;-69
2022/11/29 02:58:01;;;;;;;22.55;17.60;;;;;;;7.13;100.00;102197.63;2070334;28;20280;-69
2022/11/29 02:59:26;;;;;;;23.38;17.20;;;;;;;7.16;100.00;102199.63;2071483;28;20670;-69
2022/11/29 03:00:27;;;;;;;22.83;17.65;;;;;;;7.15;100.00;102202.75;2070171;28;20196;-68
2022/11/29 03:01:45;;;;;;;22.67;17.30;;;;;;;6.29;100.00;102066.81;2070332;28;20673;-69
2022/11/29 03:03:07;;;;;;;22.08;16.70;;;;;;;7.14;100.00;102190.97;2070767;28;20604;-69
2022/11/29 03:04:30;;;;;;;22.15;16.65;;;;;;;7.17;100.00;102189.41;2071482;28;20190;-68
2022/11/29 03:05:58;;;;;;;20.95;16.30;;;;;;;7.17;100.00;102187.44;2070985;28;20673;-69
2022/11/29 03:07:13;;;;;;;21.50;16.55;;;;;;;7.19;100.00;102184.31;2065186;28;20276;-68
2022/11/29 03:08:47;;;;;;;22.77;17.67;;;;;;;7.15;100.00;102189.78;2071445;28;20178;-69
2022/11/29 03:10:29;;;;;;;20.38;16.00;;;;;;;7.16;100.00;102191.38;2070433;28;20178;-69
2022/11/29 03:12:00;;;;;;;22.85;17.08;;;;;;;7.10;100.00;102178.25;2069496;28;20205;-69
2022/11/29 03:13:04;;;;;;;21.00;16.33;;;;;;;7.11;100.00;102185.38;2072119;28;20208;-69
2022/11/29 03:14:16;;;;;;;20.60;16.05;;;;;;;7.14;100.00;102195.66;2072143;28;20225;-69
2022/11/29 03:15:26;;;;;;;22.58;17.27;;;;;;;7.16;100.00;102201.59;2070929;28;20264;-69
2022/11/29 03:16:27;;;;;;;20.55;16.67;;;;;;;7.15;100.00;102198.06;2072400;28;20277;-69
2022/11/29 03:17:53;;;;;;;20.67;16.47;;;;;;;7.15;100.00;102205.53;2071523;28;20198;-69
2022/11/29 03:19:25;;;;;;;23.83;18.10;;;;;;;7.20;100.00;102203.25;2071427;28;20603;-69
2022/11/29 03:20:29;;;;;;;21.63;16.45;;;;;;;7.21;100.00;102196.56;2071449;28;20204;-69
2022/11/29 03:21:29;;;;;;;22.35;16.52;;;;;;;7.16;100.00;102199.63;2072006;28;20645;-69
2022/11/29 03:22:46;;;;;;;20.77;16.90;;;;;;;7.15;100.00;102192.53;2071880;28;20224;-69
2022/11/29 03:23:53;;;;;;;20.65;16.65;;;;;;;7.08;100.00;102189.66;2071927;28;20185;-69
2022/11/29 03:25:20;;;;;;;20.65;16.02;;;;;;;7.06;100.00;102199.47;2071784;28;20196;-69
2022/11/29 03:26:44;;;;;;;22.20;15.70;;;;;;;7.11;100.00;102199.16;2070859;28;20210;-69
2022/11/29 03:28:17;;;;;;;21.10;16.27;;;;;;;7.15;100.00;102200.00;2071812;28;20171;-69
2022/11/29 03:29:24;;;;;;;22.05;16.02;;;;;;;7.14;100.00;102199.22;2068020;28;20572;-69
2022/11/29 03:30:25;;;;;;;21.10;15.95;;;;;;;7.13;100.00;102200.38;2072276;28;20195;-69
2022/11/29 03:31:34;;;;;;;19.37;15.60;;;;;;;7.17;100.00;102206.75;2071698;28;20205;-69
2022/11/29 03:33:07;;;;;;;21.10;16.15;;;;;;;7.18;100.00;102200.06;2071555;28;20518;-69
2022/11/29 03:34:15;;;;;;;20.27;15.45;;;;;;;7.20;100.00;102207.97;2069386;28;20200;-69
2022/11/29 03:35:19;;;;;;;20.92;16.08;;;;;;;7.21;100.00;102206.78;2072418;28;20191;-68
2022/11/29 03:36:44;;;;;;;19.40;15.55;;;;;;;7.20;100.00;102207.97;2072330;28;20201;-69
2022/11/29 03:37:57;;;;;;;20.05;15.40;;;;;;;7.22;100.00;102206.41;2071859;28;20541;-69
2022/11/29 03:39:03;;;;;;;19.02;15.18;;;;;;;7.24;100.00;102212.38;2071748;28;20650;-69
2022/11/29 03:40:12;;;;;;;20.85;15.93;;;;;;;7.21;100.00;102213.09;2072315;28;20181;-68
2022/11/29 03:41:39;;;;;;;19.55;15.88;;;;;;;6.36;100.00;102085.41;2071585;28;20189;-69
2022/11/29 03:42:42;;;;;;;20.15;15.90;;;;;;;7.23;100.00;102216.28;2071246;28;20197;-69
2022/11/29 03:44:10;;;;;;;20.10;15.23;;;;;;;7.24;100.00;102212.38;2071648;28;20193;-69
2022/11/29 03:45:18;;;;;;;18.27;14.70;;;;;;;7.22;100.00;102206.41;2071900;28;20200;-69
2022/11/29 03:46:46;;;;;;;19.70;15.30;;;;;;;7.24;100.00;102208.81;2072156;28;20271;-69
2022/11/29 03:47:57;;;;;;;20.52;15.70;;;;;;;7.13;100.00;102196.84;2071516;28;20197;-69
2022/11/29 03:49:18;;;;;;;19.27;14.77;;;;;;;7.19;100.00;102207.19;2072274;28;20203;-69
2022/11/29 03:50:24;;;;;;;18.92;14.75;;;;;;;7.23;100.00;102212.75;2071649;28;20201;-69
2022/11/29 03:51:52;;;;;;;19.83;15.38;;;;;;;7.22;100.00;102206.41;2072403;28;20177;-69
2022/11/29 03:52:58;;;;;;;18.17;14.30;;;;;;;7.21;100.00;102206.78;2071933;28;20201;-69
2022/11/29 03:54:06;;;;;;;18.80;15.40;;;;;;;7.16;100.00;102210.66;2071683;28;20181;-68
2022/11/29 03:55:26;;;;;;;19.85;15.43;;;;;;;7.15;100.00;102208.28;2071101;28;20698;-69
2022/11/29 03:56:36;;;;;;;19.13;14.93;;;;;;;7.19;100.00;102206.38;2071655;28;20283;-69
2022/11/29 03:58:03;;;;;;;20.00;14.68;;;;;;;7.17;100.00;102209.50;2071786;28;20193;-69
2022/11/29 03:59:55;;;;;;;19.63;15.40;;;;;;;7.16;100.00;102213.44;2071893;28;20730;-69
2022/11/29 04:01:34;;;;;;;19.35;14.57;;;;;;;7.13;100.00;102216.91;2055286;28;20283;-69
2022/11/29 04:02:59;;;;;;;18.48;14.32;;;;;;;7.11;100.00;102207.41;2054935;28;20202;-68
2022/11/29 04:04:35;;;;;;;19.65;15.05;;;;;;;7.13;100.00;102208.63;2055131;28;20733;-69
2022/11/29 04:06:04;;;;;;;20.90;16.73;;;;;;;7.09;100.00;102212.53;2070566;28;20170;-69
2022/11/29 04:07:26;;;;;;;19.77;15.07;;;;;;;7.15;100.00;102209.09;2071597;28;20276;-69
2022/11/29 04:08:32;;;;;;;20.35;14.93;;;;;;;7.13;100.00;102211.41;2070415;28;20197;-68
2022/11/29 04:09:47;;;;;;;20.25;15.55;;;;;;;7.13;100.00;102214.16;2071113;28;20204;-69
2022/11/29 04:11:06;;;;;;;20.25;15.40;;;;;;;7.16;100.00;102207.91;2071496;28;20579;-69
2022/11/29 04:12:24;;;;;;;21.15;14.90;;;;;;;7.20;100.00;102214.28;2070852;28;20260;-69
2022/11/29 04:13:43;;;;;;;20.33;15.02;;;;;;;7.16;100.00;102213.44;2071612;28;20182;-69
2022/11/29 04:14:52;;;;;;;19.90;14.70;;;;;;;7.15;100.00;102222.06;2070459;28;20189;-69
2022/11/29 04:16:24;;;;;;;20.13;14.82;;;;;;;7.15;100.00;102214.59;2071417;28;20248;-69
2022/11/29 04:17:43;;;;;;;19.52;14.65;;;;;;;7.08;100.00;102210.94;2071398;28;20185;-69
2022/11/29 04:19:02;;;;;;;17.60;14.02;;;;;;;7.11;100.00;102224.78;2071824;28;20183;-69
2022/11/29 04:20:36;;;;;;;19.05;15.07;;;;;;;7.12;100.00;102217.31;2071856;28;21163;-69
2022/11/29 04:21:54;;;;;;;19.90;14.35;;;;;;;7.13;100.00;102218.88;2071465;28;20239;-69
2022/11/29 04:23:33;;;;;;;17.38;13.73;;;;;;;7.13;100.00;102213.38;2071600;28;20192;-69
2022/11/29 04:24:36;;;;;;;20.75;14.25;;;;;;;7.15;100.00;102222.06;2057045;28;20199;-69
2022/11/29 04:25:57;;;;;;;19.85;14.55;;;;;;;7.16;100.00;102224.44;2071632;28;20233;-69
2022/11/29 04:27:22;;;;;;;17.80;14.25;;;;;;;7.09;100.00;102223.53;2071617;28;20228;-69
2022/11/29 04:28:34;;;;;;;19.67;14.38;;;;;;;7.03;100.00;102214.78;2071223;28;20170;-68
2022/11/29 04:29:49;;;;;;;20.55;15.05;;;;;;;6.94;100.00;102214.25;2071009;28;20209;-68
2022/11/29 04:31:17;;;;;;;21.88;15.55;;;;;;;6.98;100.00;102217.06;2071109;28;20174;-69
2022/11/29 04:32:56;;;;;;;21.77;15.15;;;;;;;6.99;100.00;102218.66;2071270;28;20277;-69
2022/11/29 04:34:21;;;;;;;20.90;14.88;;;;;;;6.99;100.00;102215.91;2061829;28;20206;-68
2022/11/29 04:35:49;;;;;;;19.42;14.23;;;;;;;7.00;100.00;102226.56;2070880;28;21059;-69
2022/11/29 04:37:13;;;;;;;20.70;15.35;;;;;;;7.03;100.00;102217.53;2061576;28;20210;-68
2022/11/29 04:38:14;;;;;;;19.38;14.32;;;;;;;7.07;100.00;102223.13;2071829;28;20185;-69
2022/11/29 04:39:33;;;;;;;23.87;16.23;;;;;;;7.07;100.00;102228.66;2071271;28;20194;-68
2022/11/29 04:40:51;;;;;;;18.15;14.20;;;;;;;7.08;100.00;102219.19;2071381;28;20271;-69
2022/11/29 04:42:24;;;;;;;19.05;14.85;;;;;;;7.08;100.00;102219.19;2070571;28;20193;-69
2022/11/29 04:43:52;;;;;;;19.80;14.43;;;;;;;7.09;100.00;102215.28;2071041;28;20673;-69
2022/11/29 04:45:13;;;;;;;19.58;14.90;;;;;;;7.10;100.00;102222.38;2071743;28;20185;-69
2022/11/29 04:46:45;;;;;;;19.50;14.88;;;;;;;7.11;100.00;102222.00;2071327;28;20692;-69
2022/11/29 04:47:55;;;;;;;18.38;14.05;;;;;;;7.14;100.00;102213.00;2071009;28;20162;-69
2022/11/29 04:49:13;;;;;;;19.35;15.05;;;;;;;7.10;100.00;102214.91;2071170;28;20304;-68
2022/11/29 04:50:26;;;;;;;28.08;15.23;;;;;;;6.98;100.00;102201.31;2071480;28;20615;-69
2022/11/29 04:51:48;;;;;;;22.13;15.30;;;;;;;7.08;100.00;102219.19;2071142;28;20192;-69
2022/11/29 04:52:48;;;;;;;16.35;13.32;;;;;;;7.11;100.00;102218.44;2071354;28;20598;-69
2022/11/29 04:54:01;;;;;;;20.50;14.87;;;;;;;7.12;100.00;102220.06;2071121;28;20193;-69
2022/11/29 04:55:17;;;;;;;19.13;14.95;;;;;;;7.15;100.00;102224.81;2071118;28;20655;-69
2022/11/29 04:56:42;;;;;;;20.35;15.57;;;;;;;7.19;100.00;102223.72;2071943;28;20196;-69
2022/11/29 04:57:50;;;;;;;19.63;15.10;;;;;;;7.20;100.00;102236.34;2071317;28;20277;-69
2022/11/29 04:59:18;;;;;;;20.88;14.50;;;;;;;7.23;100.00;102226.53;2071785;28;20659;-69
2022/11/29 05:00:21;;;;;;;19.38;14.63;;;;;;;7.22;100.00;102224.94;2070848;28;20209;-69
2022/11/29 05:01:37;;;;;;;19.77;14.88;;;;;;;7.21;100.00;102226.09;2069532;28;20662;-69
2022/11/29 05:02:58;;;;;;;18.90;14.93;;;;;;;7.26;100.00;102228.53;2070052;28;20177;-69
2022/11/29 05:04:26;;;;;;;19.20;14.18;;;;;;;7.12;100.00;102203.53;2070150;28;20683;-69
2022/11/29 05:05:32;;;;;;;20.80;15.85;;;;;;;7.25;100.00;102229.69;2069862;28;20206;-69
2022/11/29 05:07:00;;;;;;;21.48;16.98;;;;;;;7.25;100.00;102229.69;2069601;28;20166;-69
2022/11/29 05:08:10;;;;;;;19.02;14.48;;;;;;;7.25;100.00;102230.50;2069597;28;20238;-69
2022/11/29 05:09:23;;;;;;;19.98;14.52;;;;;;;7.28;100.00;102226.22;2070035;28;20190;-66
2022/11/29 05:10:43;;;;;;;19.02;14.25;;;;;;;7.31;100.00;102233.72;2076575;28;20196;-67
2022/11/29 05:12:01;;;;;;;19.95;15.23;;;;;;;7.31;100.00;102234.53;2073386;28;20193;-67
2022/11/29 05:13:11;;;;;;;18.35;14.00;;;;;;;7.32;100.00;102227.84;2071269;28;20272;-64
2022/11/29 05:14:29;;;;;;;20.77;14.25;;;;;;;7.27;100.00;102238.38;2071386;28;20272;-67
2022/11/29 05:15:53;;;;;;;19.13;14.93;;;;;;;7.28;100.00;102237.25;2067921;28;20177;-64
2022/11/29 05:17:05;;;;;;;20.00;14.98;;;;;;;7.25;100.00;102237.97;2063622;28;20202;-64
2022/11/29 05:18:35;;;;;;;19.40;14.90;;;;;;;7.25;100.00;102244.28;2070064;28;20211;-64
2022/11/29 05:19:55;;;;;;;21.38;15.15;;;;;;;7.24;100.00;102239.16;2070157;28;20198;-62
2022/11/29 05:20:55;;;;;;;20.77;15.90;;;;;;;7.26;100.00;102239.56;2068551;28;20227;-62
2022/11/29 05:22:20;;;;;;;20.47;15.57;;;;;;;7.24;100.00;102236.38;2069435;28;20197;-66
2022/11/29 05:23:58;;;;;;;19.70;14.57;;;;;;;7.20;100.00;102239.09;2070519;28;20202;-66
2022/11/29 05:25:01;;;;;;;19.02;14.40;;;;;;;7.23;100.00;102241.09;2067100;28;20300;-64